Información del aeropuerto LEZG

Información de pista
Pista 12L Longitud 9843 ft Anchura 148 ft
Elevación 823 ft Umbral 0 ft Rumbo 120
Pista 30R Longitud 9843 ft Anchura 148 ft
Elevación 834 ft Umbral 0 ft Rumbo 300
Pista 12R Longitud 12198 ft Anchura 148 ft
Elevación 834 ft Umbral 0 ft Rumbo 120
Pista 30L Longitud 12198 ft Anchura 148 ft
Elevación 863 ft Umbral 0 ft Rumbo 300
Frecuencias del aeropuerto
Tipo APP Nombre APP Frecuencia 119.3 MHZ
Tipo GND Nombre GND Frecuencia 118.1 MHZ
Tipo TWR Nombre TWR Frecuencia 118.1 MHZ
Radioayudas del aeropuerto
Tipo VOR-DME Nombre Zaragoza Frecuencia 113000 KHZ
Tipo NDB Nombre Zaragoza Frecuencia 389 KHZ
Tipo TACAN Nombre Zaragoza Frecuencia 133700 KHZ
Tipo NDB Nombre Zaragoza Frecuencia 348 KHZ
Información meteorológica del aeropuerto y NOTAM
ADDS - METARS form results

(0139 UTC 31 July 2021)
Data provider http://aviationweather.gov/metar/data/
 
METAR text: LEZG 310130Z 29015KT CAVOK 20/13 Q1012
Conditions at: LEZG (ZARAGOZA (MIL/CI, ES) observed 0130 UTC 31 July 2021
Temperature: 20.0°C (68°F)
Dewpoint: 13.0°C (55°F) [RH = 64%]
Pressure (altimeter): 29.88 inches Hg (1012.0 mb)
Winds: from the WNW (290 degrees) at 17 MPH (15 knots; 7.7 m/s)
Visibility: 6 or more miles (10+ km)
Ceiling: ceiling and visibility are OK
Clouds: unknown
Weather: no significant weather observed at this time

METAR text: LEZG 310100Z 29016KT CAVOK 20/13 Q1012
Conditions at: LEZG (ZARAGOZA (MIL/CI, ES) observed 0100 UTC 31 July 2021
Temperature: 20.0°C (68°F)
Dewpoint: 13.0°C (55°F) [RH = 64%]
Pressure (altimeter): 29.88 inches Hg (1012.0 mb)
Winds: from the WNW (290 degrees) at 18 MPH (16 knots; 8.2 m/s)
Visibility: 6 or more miles (10+ km)
Ceiling: ceiling and visibility are OK
Clouds: unknown
Weather: no significant weather observed at this time

Forecast for: LEZG (ZARAGOZA (MIL/CI, ES)
Text: TAF LEZG 302300Z 3100/3124 31020KT 9999 FEW040 TX27/3116Z TN16/3106Z
Forecast period: 0000 UTC 31 July 2021 to 0000 UTC 01 August 2021
Forecast type: FROM: standard forecast or significant change
Winds: from the NW (310 degrees) at 23 MPH (20 knots; 10.3 m/s)
Visibility: 6 or more miles (10+ km)
Ceiling: at least 12,000 feet AGL
Clouds: few clouds at 4000 feet AGL
Weather: no significant weather forecast for this period
Text: PROB30
Forecast period: 1400 to 2000 UTC 31 July 2021
Forecast type: TEMPORARY: The following changes expected for less than half the time period
Winds: from the WNW (300 degrees) at 34 MPH (30 knots; 15.4 m/s)
gusting to 49 MPH (43 knots; 22.1 m/s)
Visibility: 1.86 miles (2.99 km)
Ceiling: at least 12,000 feet AGL
Clouds: few clouds at 5000 feet AGL
Weather: TSRA  (rain associated with thunderstorm(s))